Flight Track Log - Related Links

Times and Time Zones

All times are in EST time to prevent confusion due to time zone crossing. See the BVN7280 flight status page for this flight to view local times or setup timezone preferences in your user account.

Time Position Orientation Groundspeed Altitude Reporting Facility
EST Latitude Longitude Course Direction KTS MPH feet Rate Location/Type
Tue 12:12:05 AM 30.1744 -97.5947 10° North 118 136 3,600  Level Fort Worth Center
Tue 12:13:05 AM 30.2081 -97.5794 21° North 138 159 4,200 694 Climbing Fort Worth Center
Tue 12:14:06 AM 30.2500 -97.5711 10° North 151 174 5,000 738 Climbing Fort Worth Center
Tue 12:15:00 AM 30.6344 -97.4732 10° North  Level FlightAware Approximate
Tue 12:15:07 AM 30.2925 -97.5597 13° North 152 175 5,700  Level Fort Worth Center
Tue 12:16:00 AM 30.6834 -97.4633 10° North  Level FlightAware Approximate
Tue 12:16:10 AM 30.3364 -97.5500 11° North 155 178 6,500  Level Houston Center
Tue 12:17:00 AM 30.7324 -97.4535 10° North  Level FlightAware Approximate
Tue 12:17:10 AM 30.3797 -97.5400 11° North 157 181 7,300  Level Houston Center
Tue 12:18:11 AM 30.4197 -97.5297 12° North 149 171 8,100 595 Climbing Houston Center
Tue 12:19:11 AM 30.4603 -97.5225 North 147 169 8,500 500 Climbing Houston Center
Tue 12:20:11 AM 30.5044 -97.5125 11° North 155 178 9,100 298 Climbing Houston Center
Tue 12:21:12 AM 30.5522 -97.5019 11° North 167 192 9,100  Level Houston Center
Tue 12:22:12 AM 30.6042 -97.4897 11° North 182 209 9,100 -50 Level Houston Center
Tue 12:23:12 AM 30.6544 -97.4783 11° North 183 211 9,000  Descending Houston Center
Tue 12:24:13 AM 30.7056 -97.4667 11° North 184 212 9,100 50 Climbing Houston Center
Tue 12:25:13 AM 30.7567 -97.4561 10° North 184 212 9,100 -50 Level Houston Center
Tue 12:26:13 AM 30.8083 -97.4447 11° North 185 213 9,000 -50 Descending Houston Center
Tue 12:27:14 AM 30.8606 -97.4339 10° North 187 215 9,000 50 Level Houston Center
Tue 12:28:14 AM 30.9114 -97.4300 North 182 209 9,100  Climbing Houston Center
Tue 12:29:14 AM 30.9628 -97.4322 358° North 182 209 9,000 -50 Descending Houston Center
Tue 12:30:15 AM 31.0075 -97.4264 North 187 215 9,000 50 Level Houston Center
Tue 12:31:15 AM 31.0603 -97.4228 North 187 215 9,100 50 Climbing Houston Center
Tue 12:32:15 AM 31.1150 -97.4214 North 190 219 9,100 -50 Level Houston Center
Tue 12:33:16 AM 31.1689 -97.4181 North 192 221 9,000 -50 Descending Houston Center
Tue 12:34:16 AM 31.2222 -97.4167 North 189 217 9,000 50 Level Houston Center
Tue 12:35:16 AM 31.2783 -97.4136 North 195 224 9,100 50 Climbing Houston Center
Tue 12:36:16 AM 31.3347 -97.4106 North 200 230 9,100  Level Houston Center
Tue 12:37:17 AM 31.3922 -97.4075 North 202 232 9,100 -50 Level Houston Center
Tue 12:38:17 AM 31.4497 -97.4053 North 203 234 9,000 -50 Descending Houston Center
Tue 12:39:17 AM 31.5053 -97.4008 North 201 231 9,000 48 Level Houston Center
Tue 12:40:22 AM 31.5611 -97.4006 360° North 198 228 9,100 48 Climbing Fort Worth Center
Tue 12:41:22 AM 31.6158 -97.3975 North 196 226 9,100 -50 Level Fort Worth Center
Tue 12:42:23 AM 31.6731 -97.3922 North 202 232 9,000  Descending Fort Worth Center
Tue 12:43:23 AM 31.7261 -97.3919 360° North 192 221 9,100 50 Climbing Fort Worth Center
Tue 12:44:24 AM 31.7792 -97.3894 North 190 219 9,100  Level Fort Worth Center
Tue 12:45:24 AM 31.8336 -97.3864 North 193 222 9,100  Level Fort Worth Center
Tue 12:46:24 AM 31.8886 -97.3833 North 196 226 9,100  Level Fort Worth Center
Tue 12:47:25 AM 31.9450 -97.3817 North 199 229 9,100 -50 Level Fort Worth Center
Tue 12:48:25 AM 32.0036 -97.3767 North 192 221 9,000 -50 Descending Fort Worth Center
Tue 12:49:26 AM 32.0578 -97.3739 North 193 222 9,000  Level Fort Worth Center
Tue 12:50:26 AM 32.1133 -97.3708 North 197 227 9,000  Level Fort Worth Center
Tue 12:51:26 AM 32.1675 -97.3683 North 194 223 9,000 -347 Level Fort Worth Center
Tue 12:52:27 AM 32.2286 -97.3658 North 204 235 8,300 -645 Descending Fort Worth Center
Tue 12:53:27 AM 32.2903 -97.3617 North 220 253 7,700 -645 Descending Fort Worth Center
Tue 12:54:28 AM 32.3511 -97.3597 North 219 252 7,000 -645 Descending Fort Worth Center
Tue 12:55:28 AM 32.4106 -97.3561 North 216 249 6,400 -650 Descending Fort Worth Center
Tue 12:56:28 AM 32.4714 -97.3531 North 219 252 5,700 -595 Descending Fort Worth Center
Tue 12:57:29 AM 32.5300 -97.3467 North 211 243 5,200 -347 Descending Fort Worth Center
Tue 12:58:29 AM 32.5867 -97.3447 North 205 236 5,000 -100 Descending Fort Worth Center
Tue 12:59:29 AM 32.6392 -97.3403 North 192 221 5,000  Level Fort Worth Center
Tue 01:00:31 AM 32.6906 -97.3389 North 187 215 5,000 -295 Level Fort Worth Center
Tue 01:01:31 AM 32.7453 -97.3425 357° North 198 228 4,400 -496 Descending Fort Worth Center
Tue 01:02:32 AM 32.8017 -97.3528 351° North 204 235 4,000 -198 Descending Fort Worth Center
Tue 01:03:32 AM 32.8569 -97.3597 354° North 187 215 4,000 -316 Level Fort Worth Center
Tue 01:04:07 AM 32.8833 -97.3667 348° North 152 175 3,500 -695 Descending Dallas / Fort Worth TRACON
Tue 01:05:07 AM 32.9333 -97.3667 360° North 150 173 2,900 -700 Descending Dallas / Fort Worth TRACON
Tue 01:06:07 AM 32.9667 -97.3500 23° Northeast 170 196 2,100 -500 Descending Dallas / Fort Worth TRACON
Tue 01:07:07 AM 33.0000 -97.3333 23° Northeast 106 122 1,900 -200 Descending Dallas / Fort Worth TRACON
Tue 01:10:00 AM 32.9833 -97.3167 140° Southeast  Level FlightAware Approximate

Login

Don't have an account? Register now (free) for customized features, flight alerts, and more!